sensor_id;sensor_type;location;lat;lon;timestamp;P1;durP1;ratioP1;P2;durP2;ratioP2
50511;SDS011;36446;47.642;-3.018;2022-09-01T00:01:27;17.67;;;9.20;;
50511;SDS011;36446;47.642;-3.018;2022-09-01T00:03:54;15.10;;;9.27;;
50511;SDS011;36446;47.642;-3.018;2022-09-01T00:06:28;14.35;;;9.63;;
50511;SDS011;36446;47.642;-3.018;2022-09-01T00:08:57;16.80;;;10.38;;
50511;SDS011;36446;47.642;-3.018;2022-09-01T00:11:25;17.45;;;10.90;;
50511;SDS011;36446;47.642;-3.018;2022-09-01T00:13:52;16.25;;;10.60;;
50511;SDS011;36446;47.642;-3.018;2022-09-01T00:16:19;14.53;;;9.77;;
50511;SDS011;36446;47.642;-3.018;2022-09-01T00:18:47;12.05;;;9.10;;
50511;SDS011;36446;47.642;-3.018;2022-09-01T00:21:15;14.00;;;9.23;;
50511;SDS011;36446;47.642;-3.018;2022-09-01T00:23:42;13.68;;;9.57;;
50511;SDS011;36446;47.642;-3.018;2022-09-01T00:26:08;16.65;;;10.88;;
50511;SDS011;36446;47.642;-3.018;2022-09-01T00:28:34;15.63;;;10.03;;
50511;SDS011;36446;47.642;-3.018;2022-09-01T00:31:00;15.65;;;10.40;;
50511;SDS011;36446;47.642;-3.018;2022-09-01T00:33:27;12.93;;;9.95;;
50511;SDS011;36446;47.642;-3.018;2022-09-01T00:35:53;15.45;;;11.20;;
50511;SDS011;36446;47.642;-3.018;2022-09-01T00:38:18;15.23;;;10.63;;
50511;SDS011;36446;47.642;-3.018;2022-09-01T00:40:44;14.05;;;9.88;;
50511;SDS011;36446;47.642;-3.018;2022-09-01T00:43:17;15.53;;;10.30;;
50511;SDS011;36446;47.642;-3.018;2022-09-01T00:45:47;13.05;;;9.60;;
50511;SDS011;36446;47.642;-3.018;2022-09-01T00:48:16;15.60;;;9.98;;
50511;SDS011;36446;47.642;-3.018;2022-09-01T00:50:44;14.18;;;9.93;;
50511;SDS011;36446;47.642;-3.018;2022-09-01T00:53:11;14.93;;;10.02;;
50511;SDS011;36446;47.642;-3.018;2022-09-01T00:55:37;14.98;;;10.15;;
50511;SDS011;36446;47.642;-3.018;2022-09-01T00:58:04;15.57;;;10.47;;
50511;SDS011;36446;47.642;-3.018;2022-09-01T01:00:32;16.67;;;10.73;;
50511;SDS011;36446;47.642;-3.018;2022-09-01T01:03:02;18.65;;;11.00;;
50511;SDS011;36446;47.642;-3.018;2022-09-01T01:05:32;16.00;;;11.10;;
50511;SDS011;36446;47.642;-3.018;2022-09-01T01:08:03;17.27;;;11.40;;
50511;SDS011;36446;47.642;-3.018;2022-09-01T01:10:32;15.53;;;10.87;;
50511;SDS011;36446;47.642;-3.018;2022-09-01T01:13:12;15.23;;;10.43;;
50511;SDS011;36446;47.642;-3.018;2022-09-01T01:15:40;14.65;;;10.73;;
50511;SDS011;36446;47.642;-3.018;2022-09-01T01:18:12;14.95;;;11.13;;
50511;SDS011;36446;47.642;-3.018;2022-09-01T01:20:39;16.15;;;10.80;;
50511;SDS011;36446;47.642;-3.018;2022-09-01T01:23:25;15.48;;;10.40;;
50511;SDS011;36446;47.642;-3.018;2022-09-01T01:25:53;14.77;;;10.33;;
50511;SDS011;36446;47.642;-3.018;2022-09-01T01:28:24;16.45;;;10.80;;
50511;SDS011;36446;47.642;-3.018;2022-09-01T01:31:00;14.38;;;10.10;;
50511;SDS011;36446;47.642;-3.018;2022-09-01T01:33:34;16.88;;;10.43;;
50511;SDS011;36446;47.642;-3.018;2022-09-01T01:36:07;15.20;;;9.93;;
50511;SDS011;36446;47.642;-3.018;2022-09-01T01:38:37;14.87;;;10.00;;
50511;SDS011;36446;47.642;-3.018;2022-09-01T01:41:06;15.20;;;10.10;;
50511;SDS011;36446;47.642;-3.018;2022-09-01T01:43:33;13.15;;;9.85;;
50511;SDS011;36446;47.642;-3.018;2022-09-01T01:45:58;15.60;;;10.07;;
50511;SDS011;36446;47.642;-3.018;2022-09-01T01:48:27;13.82;;;10.60;;
50511;SDS011;36446;47.642;-3.018;2022-09-01T01:50:54;15.13;;;10.30;;
50511;SDS011;36446;47.642;-3.018;2022-09-01T01:53:22;14.17;;;9.97;;
50511;SDS011;36446;47.642;-3.018;2022-09-01T01:55:48;16.47;;;10.37;;
50511;SDS011;36446;47.642;-3.018;2022-09-01T01:58:18;13.90;;;10.57;;
50511;SDS011;36446;47.642;-3.018;2022-09-01T02:00:46;14.23;;;10.15;;
50511;SDS011;36446;47.642;-3.018;2022-09-01T02:03:14;16.48;;;10.77;;
50511;SDS011;36446;47.642;-3.018;2022-09-01T02:05:43;14.25;;;9.82;;
50511;SDS011;36446;47.642;-3.018;2022-09-01T02:08:14;14.68;;;10.38;;
50511;SDS011;36446;47.642;-3.018;2022-09-01T02:10:47;16.40;;;10.48;;
50511;SDS011;36446;47.642;-3.018;2022-09-01T02:13:15;14.02;;;10.32;;
50511;SDS011;36446;47.642;-3.018;2022-09-01T02:15:48;16.67;;;9.93;;
50511;SDS011;36446;47.642;-3.018;2022-09-01T02:18:28;14.90;;;9.90;;
50511;SDS011;36446;47.642;-3.018;2022-09-01T02:21:01;13.32;;;9.27;;
50511;SDS011;36446;47.642;-3.018;2022-09-01T02:23:34;15.05;;;10.45;;
50511;SDS011;36446;47.642;-3.018;2022-09-01T02:26:00;13.55;;;9.82;;
50511;SDS011;36446;47.642;-3.018;2022-09-01T02:28:27;14.18;;;10.20;;
50511;SDS011;36446;47.642;-3.018;2022-09-01T02:30:56;13.80;;;9.38;;
50511;SDS011;36446;47.642;-3.018;2022-09-01T02:33:23;12.93;;;9.43;;
50511;SDS011;36446;47.642;-3.018;2022-09-01T02:35:53;13.35;;;9.95;;
50511;SDS011;36446;47.642;-3.018;2022-09-01T02:38:20;14.27;;;10.63;;
50511;SDS011;36446;47.642;-3.018;2022-09-01T02:40:50;13.73;;;10.67;;
50511;SDS011;36446;47.642;-3.018;2022-09-01T02:43:18;14.52;;;9.93;;
50511;SDS011;36446;47.642;-3.018;2022-09-01T02:45:45;15.07;;;10.07;;
50511;SDS011;36446;47.642;-3.018;2022-09-01T02:50:56;13.38;;;9.32;;
50511;SDS011;36446;47.642;-3.018;2022-09-01T02:53:24;12.35;;;9.75;;
50511;SDS011;36446;47.642;-3.018;2022-09-01T02:55:50;13.32;;;10.27;;
50511;SDS011;36446;47.642;-3.018;2022-09-01T02:58:15;15.10;;;9.60;;
50511;SDS011;36446;47.642;-3.018;2022-09-01T03:00:43;14.57;;;8.77;;
50511;SDS011;36446;47.642;-3.018;2022-09-01T03:03:09;12.88;;;9.10;;
50511;SDS011;36446;47.642;-3.018;2022-09-01T03:05:36;13.95;;;9.75;;
50511;SDS011;36446;47.642;-3.018;2022-09-01T03:08:08;13.63;;;9.07;;
50511;SDS011;36446;47.642;-3.018;2022-09-01T03:10:37;15.00;;;9.48;;
50511;SDS011;36446;47.642;-3.018;2022-09-01T03:13:07;15.10;;;10.25;;
50511;SDS011;36446;47.642;-3.018;2022-09-01T03:15:39;13.43;;;9.95;;
50511;SDS011;36446;47.642;-3.018;2022-09-01T03:18:06;12.32;;;9.40;;
50511;SDS011;36446;47.642;-3.018;2022-09-01T03:20:33;13.93;;;9.50;;
50511;SDS011;36446;47.642;-3.018;2022-09-01T03:23:01;13.55;;;9.98;;
50511;SDS011;36446;47.642;-3.018;2022-09-01T03:25:29;14.38;;;9.13;;
50511;SDS011;36446;47.642;-3.018;2022-09-01T03:27:56;14.73;;;9.30;;
50511;SDS011;36446;47.642;-3.018;2022-09-01T03:30:25;12.82;;;8.88;;
50511;SDS011;36446;47.642;-3.018;2022-09-01T03:32:53;13.70;;;8.88;;
50511;SDS011;36446;47.642;-3.018;2022-09-01T03:35:19;14.27;;;9.67;;
50511;SDS011;36446;47.642;-3.018;2022-09-01T03:37:45;14.07;;;9.50;;
50511;SDS011;36446;47.642;-3.018;2022-09-01T03:40:11;14.43;;;9.97;;
50511;SDS011;36446;47.642;-3.018;2022-09-01T03:42:38;15.40;;;9.30;;
50511;SDS011;36446;47.642;-3.018;2022-09-01T03:45:04;13.93;;;8.80;;
50511;SDS011;36446;47.642;-3.018;2022-09-01T03:47:32;14.53;;;9.30;;
50511;SDS011;36446;47.642;-3.018;2022-09-01T03:50:09;10.88;;;8.38;;
50511;SDS011;36446;47.642;-3.018;2022-09-01T03:52:46;12.43;;;9.27;;
50511;SDS011;36446;47.642;-3.018;2022-09-01T03:55:18;11.97;;;8.87;;
50511;SDS011;36446;47.642;-3.018;2022-09-01T03:57:50;12.70;;;8.98;;
50511;SDS011;36446;47.642;-3.018;2022-09-01T04:00:20;13.13;;;9.68;;
50511;SDS011;36446;47.642;-3.018;2022-09-01T04:02:48;13.35;;;9.75;;
50511;SDS011;36446;47.642;-3.018;2022-09-01T04:05:19;12.35;;;9.13;;
50511;SDS011;36446;47.642;-3.018;2022-09-01T04:07:49;14.93;;;10.30;;
50511;SDS011;36446;47.642;-3.018;2022-09-01T04:10:18;13.93;;;9.73;;
50511;SDS011;36446;47.642;-3.018;2022-09-01T04:12:44;13.20;;;9.38;;
50511;SDS011;36446;47.642;-3.018;2022-09-01T04:15:10;11.30;;;8.25;;
50511;SDS011;36446;47.642;-3.018;2022-09-01T04:17:38;13.35;;;8.80;;
50511;SDS011;36446;47.642;-3.018;2022-09-01T04:20:22;11.75;;;8.30;;
50511;SDS011;36446;47.642;-3.018;2022-09-01T04:22:49;12.10;;;8.75;;
50511;SDS011;36446;47.642;-3.018;2022-09-01T04:25:16;11.98;;;8.55;;
50511;SDS011;36446;47.642;-3.018;2022-09-01T04:27:47;14.73;;;8.90;;
50511;SDS011;36446;47.642;-3.018;2022-09-01T04:30:19;11.23;;;8.75;;
50511;SDS011;36446;47.642;-3.018;2022-09-01T04:32:53;12.63;;;9.18;;
50511;SDS011;36446;47.642;-3.018;2022-09-01T04:35:20;13.40;;;9.93;;
50511;SDS011;36446;47.642;-3.018;2022-09-01T04:37:52;12.70;;;9.82;;
50511;SDS011;36446;47.642;-3.018;2022-09-01T04:40:18;13.40;;;9.25;;
50511;SDS011;36446;47.642;-3.018;2022-09-01T04:42:47;12.93;;;8.77;;
50511;SDS011;36446;47.642;-3.018;2022-09-01T04:45:14;11.00;;;8.98;;
50511;SDS011;36446;47.642;-3.018;2022-09-01T04:47:40;13.45;;;9.50;;
50511;SDS011;36446;47.642;-3.018;2022-09-01T04:50:07;13.32;;;8.73;;
50511;SDS011;36446;47.642;-3.018;2022-09-01T04:52:42;10.52;;;8.38;;
50511;SDS011;36446;47.642;-3.018;2022-09-01T04:55:12;13.13;;;8.50;;
50511;SDS011;36446;47.642;-3.018;2022-09-01T04:57:42;12.23;;;8.90;;
50511;SDS011;36446;47.642;-3.018;2022-09-01T05:00:12;12.32;;;8.55;;
50511;SDS011;36446;47.642;-3.018;2022-09-01T05:02:50;13.25;;;9.15;;
50511;SDS011;36446;47.642;-3.018;2022-09-01T05:05:26;13.18;;;8.80;;
50511;SDS011;36446;47.642;-3.018;2022-09-01T05:07:52;12.67;;;8.87;;
50511;SDS011;36446;47.642;-3.018;2022-09-01T05:10:19;12.10;;;8.77;;
50511;SDS011;36446;47.642;-3.018;2022-09-01T05:12:46;11.67;;;8.30;;
50511;SDS011;36446;47.642;-3.018;2022-09-01T05:15:13;11.15;;;8.32;;
50511;SDS011;36446;47.642;-3.018;2022-09-01T05:17:39;10.93;;;8.60;;
50511;SDS011;36446;47.642;-3.018;2022-09-01T05:20:06;13.13;;;8.80;;
50511;SDS011;36446;47.642;-3.018;2022-09-01T05:22:34;13.13;;;9.40;;
50511;SDS011;36446;47.642;-3.018;2022-09-01T05:25:00;12.87;;;9.53;;
50511;SDS011;36446;47.642;-3.018;2022-09-01T05:27:36;11.60;;;9.07;;
50511;SDS011;36446;47.642;-3.018;2022-09-01T05:30:04;10.52;;;8.50;;
50511;SDS011;36446;47.642;-3.018;2022-09-01T05:32:32;12.83;;;8.97;;
50511;SDS011;36446;47.642;-3.018;2022-09-01T05:35:01;12.88;;;9.05;;
50511;SDS011;36446;47.642;-3.018;2022-09-01T05:37:32;12.80;;;9.70;;
50511;SDS011;36446;47.642;-3.018;2022-09-01T05:40:01;14.57;;;9.90;;
50511;SDS011;36446;47.642;-3.018;2022-09-01T05:42:31;13.43;;;9.33;;
50511;SDS011;36446;47.642;-3.018;2022-09-01T05:44:58;12.60;;;9.13;;
50511;SDS011;36446;47.642;-3.018;2022-09-01T05:47:24;13.77;;;9.23;;
50511;SDS011;36446;47.642;-3.018;2022-09-01T05:49:50;12.48;;;9.30;;
50511;SDS011;36446;47.642;-3.018;2022-09-01T05:52:17;13.38;;;9.32;;
50511;SDS011;36446;47.642;-3.018;2022-09-01T05:54:49;14.85;;;9.73;;
50511;SDS011;36446;47.642;-3.018;2022-09-01T05:57:16;14.87;;;9.47;;
50511;SDS011;36446;47.642;-3.018;2022-09-01T05:59:43;12.75;;;9.60;;
50511;SDS011;36446;47.642;-3.018;2022-09-01T06:02:14;13.07;;;9.60;;
50511;SDS011;36446;47.642;-3.018;2022-09-01T06:04:40;10.77;;;8.77;;
50511;SDS011;36446;47.642;-3.018;2022-09-01T06:07:10;12.55;;;9.23;;
50511;SDS011;36446;47.642;-3.018;2022-09-01T06:09:39;13.30;;;9.50;;
50511;SDS011;36446;47.642;-3.018;2022-09-01T06:12:07;14.02;;;10.27;;
50511;SDS011;36446;47.642;-3.018;2022-09-01T06:14:41;12.02;;;9.05;;
50511;SDS011;36446;47.642;-3.018;2022-09-01T06:17:08;12.38;;;8.70;;
50511;SDS011;36446;47.642;-3.018;2022-09-01T06:19:36;12.35;;;8.88;;
50511;SDS011;36446;47.642;-3.018;2022-09-01T06:22:02;14.60;;;9.43;;
50511;SDS011;36446;47.642;-3.018;2022-09-01T06:24:28;13.67;;;9.70;;
50511;SDS011;36446;47.642;-3.018;2022-09-01T06:26:54;12.73;;;9.77;;
50511;SDS011;36446;47.642;-3.018;2022-09-01T06:29:19;12.65;;;9.70;;
50511;SDS011;36446;47.642;-3.018;2022-09-01T06:31:45;12.10;;;9.00;;
50511;SDS011;36446;47.642;-3.018;2022-09-01T06:34:15;13.45;;;9.75;;
50511;SDS011;36446;47.642;-3.018;2022-09-01T06:36:42;15.20;;;10.15;;
50511;SDS011;36446;47.642;-3.018;2022-09-01T06:39:10;13.55;;;10.77;;
50511;SDS011;36446;47.642;-3.018;2022-09-01T06:41:44;14.73;;;10.82;;
50511;SDS011;36446;47.642;-3.018;2022-09-01T06:44:12;15.07;;;10.63;;
50511;SDS011;36446;47.642;-3.018;2022-09-01T06:46:38;14.05;;;10.15;;
50511;SDS011;36446;47.642;-3.018;2022-09-01T06:49:04;15.45;;;10.13;;
50511;SDS011;36446;47.642;-3.018;2022-09-01T06:51:30;14.33;;;10.87;;
50511;SDS011;36446;47.642;-3.018;2022-09-01T06:53:56;14.57;;;10.73;;
50511;SDS011;36446;47.642;-3.018;2022-09-01T06:56:24;13.93;;;10.27;;
50511;SDS011;36446;47.642;-3.018;2022-09-01T06:58:55;12.35;;;9.65;;
50511;SDS011;36446;47.642;-3.018;2022-09-01T07:01:22;12.90;;;9.77;;
50511;SDS011;36446;47.642;-3.018;2022-09-01T07:03:50;13.20;;;9.73;;
50511;SDS011;36446;47.642;-3.018;2022-09-01T07:06:18;14.10;;;10.55;;
50511;SDS011;36446;47.642;-3.018;2022-09-01T07:08:51;15.05;;;10.75;;
50511;SDS011;36446;47.642;-3.018;2022-09-01T07:11:21;16.63;;;11.10;;
50511;SDS011;36446;47.642;-3.018;2022-09-01T07:13:50;18.08;;;11.02;;
50511;SDS011;36446;47.642;-3.018;2022-09-01T07:16:20;15.20;;;10.68;;
50511;SDS011;36446;47.642;-3.018;2022-09-01T07:18:48;19.15;;;11.45;;
50511;SDS011;36446;47.642;-3.018;2022-09-01T07:21:15;18.40;;;10.93;;
50511;SDS011;36446;47.642;-3.018;2022-09-01T07:23:41;16.77;;;10.15;;
50511;SDS011;36446;47.642;-3.018;2022-09-01T07:26:07;14.82;;;9.52;;
50511;SDS011;36446;47.642;-3.018;2022-09-01T07:28:34;11.63;;;8.13;;
50511;SDS011;36446;47.642;-3.018;2022-09-01T07:31:00;10.90;;;8.10;;
50511;SDS011;36446;47.642;-3.018;2022-09-01T07:33:29;12.40;;;7.18;;
50511;SDS011;36446;47.642;-3.018;2022-09-01T07:35:56;11.10;;;7.70;;
50511;SDS011;36446;47.642;-3.018;2022-09-01T07:38:23;12.30;;;7.73;;
50511;SDS011;36446;47.642;-3.018;2022-09-01T07:40:50;7.63;;;6.60;;
50511;SDS011;36446;47.642;-3.018;2022-09-01T07:43:24;9.57;;;5.73;;
50511;SDS011;36446;47.642;-3.018;2022-09-01T07:45:53;6.87;;;5.13;;
50511;SDS011;36446;47.642;-3.018;2022-09-01T07:48:21;7.30;;;5.68;;
50511;SDS011;36446;47.642;-3.018;2022-09-01T07:50:49;7.65;;;5.70;;
50511;SDS011;36446;47.642;-3.018;2022-09-01T07:53:21;6.80;;;4.63;;
50511;SDS011;36446;47.642;-3.018;2022-09-01T07:55:49;7.13;;;4.60;;
50511;SDS011;36446;47.642;-3.018;2022-09-01T07:58:16;7.28;;;5.07;;
50511;SDS011;36446;47.642;-3.018;2022-09-01T08:00:47;6.82;;;5.13;;
50511;SDS011;36446;47.642;-3.018;2022-09-01T08:03:18;9.13;;;5.43;;
50511;SDS011;36446;47.642;-3.018;2022-09-01T08:05:46;7.50;;;4.55;;
50511;SDS011;36446;47.642;-3.018;2022-09-01T08:08:15;6.88;;;4.85;;
50511;SDS011;36446;47.642;-3.018;2022-09-01T08:10:41;7.07;;;4.85;;
50511;SDS011;36446;47.642;-3.018;2022-09-01T08:13:09;8.85;;;4.50;;
50511;SDS011;36446;47.642;-3.018;2022-09-01T08:15:36;6.80;;;5.05;;
50511;SDS011;36446;47.642;-3.018;2022-09-01T08:18:06;6.75;;;4.93;;
50511;SDS011;36446;47.642;-3.018;2022-09-01T08:20:31;8.18;;;4.85;;
50511;SDS011;36446;47.642;-3.018;2022-09-01T08:23:02;8.45;;;4.82;;
50511;SDS011;36446;47.642;-3.018;2022-09-01T08:25:28;6.75;;;4.35;;
50511;SDS011;36446;47.642;-3.018;2022-09-01T08:27:55;7.55;;;3.60;;
50511;SDS011;36446;47.642;-3.018;2022-09-01T08:30:21;7.40;;;3.80;;
50511;SDS011;36446;47.642;-3.018;2022-09-01T08:32:47;6.20;;;3.85;;
50511;SDS011;36446;47.642;-3.018;2022-09-01T08:35:14;6.33;;;3.97;;
50511;SDS011;36446;47.642;-3.018;2022-09-01T08:37:40;6.05;;;4.32;;
50511;SDS011;36446;47.642;-3.018;2022-09-01T08:40:09;7.40;;;4.10;;
50511;SDS011;36446;47.642;-3.018;2022-09-01T08:45:24;6.43;;;3.80;;
50511;SDS011;36446;47.642;-3.018;2022-09-01T08:47:54;6.97;;;4.45;;
50511;SDS011;36446;47.642;-3.018;2022-09-01T08:50:24;7.38;;;4.30;;
50511;SDS011;36446;47.642;-3.018;2022-09-01T08:53:08;8.90;;;4.60;;
50511;SDS011;36446;47.642;-3.018;2022-09-01T08:55:53;9.18;;;5.00;;
50511;SDS011;36446;47.642;-3.018;2022-09-01T08:58:20;11.68;;;5.80;;
50511;SDS011;36446;47.642;-3.018;2022-09-01T09:00:49;7.43;;;4.47;;
50511;SDS011;36446;47.642;-3.018;2022-09-01T09:06:16;5.10;;;4.07;;
50511;SDS011;36446;47.642;-3.018;2022-09-01T09:08:51;6.03;;;4.33;;
50511;SDS011;36446;47.642;-3.018;2022-09-01T09:11:26;5.53;;;4.30;;
50511;SDS011;36446;47.642;-3.018;2022-09-01T09:16:46;9.40;;;4.50;;
50511;SDS011;36446;47.642;-3.018;2022-09-01T09:21:40;6.28;;;3.97;;
50511;SDS011;36446;47.642;-3.018;2022-09-01T09:26:57;7.00;;;4.40;;
50511;SDS011;36446;47.642;-3.018;2022-09-01T09:29:23;8.18;;;4.50;;
50511;SDS011;36446;47.642;-3.018;2022-09-01T09:32:06;9.07;;;4.38;;
50511;SDS011;36446;47.642;-3.018;2022-09-01T09:34:41;6.00;;;4.00;;
50511;SDS011;36446;47.642;-3.018;2022-09-01T09:43:03;5.25;;;3.70;;
50511;SDS011;36446;47.642;-3.018;2022-09-01T09:48:10;6.95;;;3.88;;
50511;SDS011;36446;47.642;-3.018;2022-09-01T09:50:52;5.88;;;3.72;;
50511;SDS011;36446;47.642;-3.018;2022-09-01T09:53:27;6.93;;;3.70;;
50511;SDS011;36446;47.642;-3.018;2022-09-01T09:58:45;6.15;;;4.07;;
50511;SDS011;36446;47.642;-3.018;2022-09-01T10:01:13;7.30;;;3.90;;
50511;SDS011;36446;47.642;-3.018;2022-09-01T10:03:57;7.55;;;3.55;;
50511;SDS011;36446;47.642;-3.018;2022-09-01T10:09:33;7.43;;;3.90;;
50511;SDS011;36446;47.642;-3.018;2022-09-01T10:12:02;5.45;;;3.67;;
50511;SDS011;36446;47.642;-3.018;2022-09-01T10:14:34;6.25;;;3.70;;
50511;SDS011;36446;47.642;-3.018;2022-09-01T10:17:08;7.53;;;3.90;;
50511;SDS011;36446;47.642;-3.018;2022-09-01T10:19:46;7.05;;;3.85;;
50511;SDS011;36446;47.642;-3.018;2022-09-01T10:22:21;7.78;;;4.07;;
50511;SDS011;36446;47.642;-3.018;2022-09-01T10:24:48;6.68;;;3.55;;
50511;SDS011;36446;47.642;-3.018;2022-09-01T10:27:18;6.32;;;3.70;;
50511;SDS011;36446;47.642;-3.018;2022-09-01T10:29:54;5.55;;;3.72;;
50511;SDS011;36446;47.642;-3.018;2022-09-01T10:32:51;5.87;;;3.60;;
50511;SDS011;36446;47.642;-3.018;2022-09-01T10:37:53;7.72;;;3.78;;
50511;SDS011;36446;47.642;-3.018;2022-09-01T10:43:21;7.70;;;3.57;;
50511;SDS011;36446;47.642;-3.018;2022-09-01T10:45:49;5.68;;;3.47;;
50511;SDS011;36446;47.642;-3.018;2022-09-01T10:53:42;6.18;;;3.78;;
50511;SDS011;36446;47.642;-3.018;2022-09-01T10:56:14;5.20;;;3.28;;
50511;SDS011;36446;47.642;-3.018;2022-09-01T11:04:05;6.78;;;2.90;;
50511;SDS011;36446;47.642;-3.018;2022-09-01T11:09:29;6.50;;;3.10;;
50511;SDS011;36446;47.642;-3.018;2022-09-01T11:12:35;5.22;;;3.08;;
50511;SDS011;36446;47.642;-3.018;2022-09-01T11:15:40;6.72;;;3.13;;
50511;SDS011;36446;47.642;-3.018;2022-09-01T11:18:23;4.82;;;3.10;;
50511;SDS011;36446;47.642;-3.018;2022-09-01T11:20:52;6.15;;;3.38;;
50511;SDS011;36446;47.642;-3.018;2022-09-01T11:25:50;5.93;;;3.10;;
50511;SDS011;36446;47.642;-3.018;2022-09-01T11:36:35;31.10;;;18.98;;
50511;SDS011;36446;47.642;-3.018;2022-09-01T11:41:54;4.30;;;3.03;;
50511;SDS011;36446;47.642;-3.018;2022-09-01T11:44:29;5.47;;;3.40;;
50511;SDS011;36446;47.642;-3.018;2022-09-01T11:47:03;4.43;;;2.90;;
50511;SDS011;36446;47.642;-3.018;2022-09-01T11:52:22;5.77;;;3.33;;
50511;SDS011;36446;47.642;-3.018;2022-09-01T11:54:50;7.85;;;3.60;;
50511;SDS011;36446;47.642;-3.018;2022-09-01T11:59:48;8.23;;;3.45;;
50511;SDS011;36446;47.642;-3.018;2022-09-01T12:02:18;6.03;;;2.92;;
50511;SDS011;36446;47.642;-3.018;2022-09-01T12:04:53;6.53;;;3.20;;
50511;SDS011;36446;47.642;-3.018;2022-09-01T12:07:29;6.22;;;3.40;;
50511;SDS011;36446;47.642;-3.018;2022-09-01T12:10:16;4.88;;;3.22;;
50511;SDS011;36446;47.642;-3.018;2022-09-01T12:12:43;5.25;;;3.28;;
50511;SDS011;36446;47.642;-3.018;2022-09-01T12:17:48;6.07;;;3.50;;
50511;SDS011;36446;47.642;-3.018;2022-09-01T12:20:18;5.85;;;3.60;;
50511;SDS011;36446;47.642;-3.018;2022-09-01T12:23:03;5.85;;;3.55;;
50511;SDS011;36446;47.642;-3.018;2022-09-01T12:25:48;4.93;;;3.03;;
50511;SDS011;36446;47.642;-3.018;2022-09-01T12:28:15;6.70;;;3.97;;
50511;SDS011;36446;47.642;-3.018;2022-09-01T12:30:41;5.28;;;3.28;;
50511;SDS011;36446;47.642;-3.018;2022-09-01T12:33:09;5.60;;;3.50;;
50511;SDS011;36446;47.642;-3.018;2022-09-01T12:35:38;5.15;;;3.38;;
50511;SDS011;36446;47.642;-3.018;2022-09-01T12:40:45;7.57;;;3.50;;
50511;SDS011;36446;47.642;-3.018;2022-09-01T12:46:03;5.93;;;3.50;;
50511;SDS011;36446;47.642;-3.018;2022-09-01T12:48:37;6.32;;;3.70;;
50511;SDS011;36446;47.642;-3.018;2022-09-01T12:53:48;7.13;;;3.67;;
50511;SDS011;36446;47.642;-3.018;2022-09-01T12:56:31;4.67;;;3.30;;
50511;SDS011;36446;47.642;-3.018;2022-09-01T12:59:04;4.57;;;3.22;;
50511;SDS011;36446;47.642;-3.018;2022-09-01T13:01:44;7.70;;;3.75;;
50511;SDS011;36446;47.642;-3.018;2022-09-01T13:06:36;6.77;;;3.50;;
50511;SDS011;36446;47.642;-3.018;2022-09-01T13:09:02;7.65;;;3.92;;
50511;SDS011;36446;47.642;-3.018;2022-09-01T13:11:28;5.10;;;3.42;;
50511;SDS011;36446;47.642;-3.018;2022-09-01T13:13:54;5.23;;;3.07;;
50511;SDS011;36446;47.642;-3.018;2022-09-01T13:16:19;9.07;;;3.40;;
50511;SDS011;36446;47.642;-3.018;2022-09-01T13:18:45;6.13;;;3.50;;
50511;SDS011;36446;47.642;-3.018;2022-09-01T13:21:11;5.20;;;3.20;;
50511;SDS011;36446;47.642;-3.018;2022-09-01T13:23:37;4.93;;;3.22;;
50511;SDS011;36446;47.642;-3.018;2022-09-01T13:26:02;5.97;;;3.50;;
50511;SDS011;36446;47.642;-3.018;2022-09-01T13:28:28;5.07;;;3.30;;
50511;SDS011;36446;47.642;-3.018;2022-09-01T13:30:56;5.78;;;3.35;;
50511;SDS011;36446;47.642;-3.018;2022-09-01T13:33:24;6.38;;;3.40;;
50511;SDS011;36446;47.642;-3.018;2022-09-01T13:35:50;4.97;;;3.45;;
50511;SDS011;36446;47.642;-3.018;2022-09-01T13:38:16;4.33;;;3.20;;
50511;SDS011;36446;47.642;-3.018;2022-09-01T13:40:43;5.32;;;3.13;;
50511;SDS011;36446;47.642;-3.018;2022-09-01T13:43:10;6.27;;;3.57;;
50511;SDS011;36446;47.642;-3.018;2022-09-01T13:45:37;4.40;;;3.03;;
50511;SDS011;36446;47.642;-3.018;2022-09-01T13:48:05;5.28;;;3.30;;
50511;SDS011;36446;47.642;-3.018;2022-09-01T13:50:32;5.78;;;3.35;;
50511;SDS011;36446;47.642;-3.018;2022-09-01T13:52:58;4.22;;;3.13;;
50511;SDS011;36446;47.642;-3.018;2022-09-01T13:55:28;5.00;;;3.45;;
50511;SDS011;36446;47.642;-3.018;2022-09-01T13:57:56;6.28;;;3.60;;
50511;SDS011;36446;47.642;-3.018;2022-09-01T14:00:24;5.00;;;3.30;;
50511;SDS011;36446;47.642;-3.018;2022-09-01T14:03:01;6.40;;;3.80;;
50511;SDS011;36446;47.642;-3.018;2022-09-01T14:05:33;6.00;;;3.53;;
50511;SDS011;36446;47.642;-3.018;2022-09-01T14:08:01;7.50;;;4.10;;
50511;SDS011;36446;47.642;-3.018;2022-09-01T14:10:29;5.73;;;3.50;;
50511;SDS011;36446;47.642;-3.018;2022-09-01T14:12:59;6.70;;;3.53;;
50511;SDS011;36446;47.642;-3.018;2022-09-01T14:15:24;6.23;;;3.90;;
50511;SDS011;36446;47.642;-3.018;2022-09-01T14:17:52;4.90;;;3.60;;
50511;SDS011;36446;47.642;-3.018;2022-09-01T14:20:20;7.60;;;3.67;;
50511;SDS011;36446;47.642;-3.018;2022-09-01T14:22:48;6.40;;;3.63;;
50511;SDS011;36446;47.642;-3.018;2022-09-01T14:25:15;7.60;;;3.90;;
50511;SDS011;36446;47.642;-3.018;2022-09-01T14:27:42;6.40;;;3.67;;
50511;SDS011;36446;47.642;-3.018;2022-09-01T14:30:10;7.88;;;3.55;;
50511;SDS011;36446;47.642;-3.018;2022-09-01T14:32:47;5.05;;;3.40;;
50511;SDS011;36446;47.642;-3.018;2022-09-01T14:35:13;7.17;;;3.97;;
50511;SDS011;36446;47.642;-3.018;2022-09-01T14:37:39;5.03;;;3.55;;
50511;SDS011;36446;47.642;-3.018;2022-09-01T14:40:06;7.93;;;3.97;;
50511;SDS011;36446;47.642;-3.018;2022-09-01T14:42:34;6.40;;;3.67;;
50511;SDS011;36446;47.642;-3.018;2022-09-01T14:45:01;7.07;;;3.42;;
50511;SDS011;36446;47.642;-3.018;2022-09-01T14:47:29;6.15;;;3.47;;
50511;SDS011;36446;47.642;-3.018;2022-09-01T14:49:56;6.70;;;3.20;;
50511;SDS011;36446;47.642;-3.018;2022-09-01T14:52:22;8.25;;;3.97;;
50511;SDS011;36446;47.642;-3.018;2022-09-01T14:54:48;7.73;;;3.43;;
50511;SDS011;36446;47.642;-3.018;2022-09-01T14:57:14;6.22;;;3.60;;
50511;SDS011;36446;47.642;-3.018;2022-09-01T14:59:40;6.75;;;3.60;;
50511;SDS011;36446;47.642;-3.018;2022-09-01T15:02:06;6.38;;;3.38;;
50511;SDS011;36446;47.642;-3.018;2022-09-01T15:04:32;7.05;;;3.55;;
50511;SDS011;36446;47.642;-3.018;2022-09-01T15:06:58;6.95;;;3.50;;
50511;SDS011;36446;47.642;-3.018;2022-09-01T15:09:24;6.57;;;3.50;;
50511;SDS011;36446;47.642;-3.018;2022-09-01T15:11:50;4.88;;;3.22;;
50511;SDS011;36446;47.642;-3.018;2022-09-01T15:14:16;5.13;;;3.08;;
50511;SDS011;36446;47.642;-3.018;2022-09-01T15:16:41;6.87;;;3.40;;
50511;SDS011;36446;47.642;-3.018;2022-09-01T15:19:08;6.20;;;3.35;;
50511;SDS011;36446;47.642;-3.018;2022-09-01T15:21:35;5.85;;;3.00;;
50511;SDS011;36446;47.642;-3.018;2022-09-01T15:24:03;7.50;;;3.58;;
50511;SDS011;36446;47.642;-3.018;2022-09-01T15:26:29;5.32;;;3.20;;
50511;SDS011;36446;47.642;-3.018;2022-09-01T15:28:56;6.87;;;3.20;;
50511;SDS011;36446;47.642;-3.018;2022-09-01T15:31:22;6.37;;;3.37;;
50511;SDS011;36446;47.642;-3.018;2022-09-01T15:33:53;8.15;;;3.22;;
50511;SDS011;36446;47.642;-3.018;2022-09-01T15:36:21;6.17;;;3.30;;
50511;SDS011;36446;47.642;-3.018;2022-09-01T15:38:48;8.30;;;3.88;;
50511;SDS011;36446;47.642;-3.018;2022-09-01T15:41:16;7.30;;;3.30;;
50511;SDS011;36446;47.642;-3.018;2022-09-01T15:43:50;7.07;;;3.67;;
50511;SDS011;36446;47.642;-3.018;2022-09-01T15:46:16;7.53;;;3.60;;
50511;SDS011;36446;47.642;-3.018;2022-09-01T15:48:43;7.00;;;3.10;;
50511;SDS011;36446;47.642;-3.018;2022-09-01T15:53:51;5.73;;;3.47;;
50511;SDS011;36446;47.642;-3.018;2022-09-01T15:56:21;6.40;;;3.38;;
50511;SDS011;36446;47.642;-3.018;2022-09-01T15:58:47;6.17;;;2.93;;
50511;SDS011;36446;47.642;-3.018;2022-09-01T16:01:14;7.05;;;3.30;;
50511;SDS011;36446;47.642;-3.018;2022-09-01T16:03:41;7.55;;;3.17;;